createdAt,value
2022-12-08T00:00:44.951Z,30
2022-12-08T00:01:48.043Z,34
2022-12-08T00:02:51.635Z,38
2022-12-08T00:03:55.364Z,38
2022-12-08T00:04:57.984Z,37
2022-12-08T00:06:00.595Z,33
2022-12-08T00:07:03.370Z,27
2022-12-08T00:08:06.136Z,25
2022-12-08T00:09:09.118Z,23
2022-12-08T00:10:40.158Z,23
2022-12-08T00:11:33.529Z,21
2022-12-08T00:12:36.258Z,22
2022-12-08T00:13:38.872Z,22
2022-12-08T00:14:41.479Z,23
2022-12-08T00:15:44.092Z,23
2022-12-08T00:16:46.765Z,22
2022-12-08T00:17:49.707Z,22
2022-12-08T00:18:52.296Z,22
2022-12-08T00:19:54.924Z,22
2022-12-08T00:20:57.497Z,21
2022-12-08T00:22:00.093Z,21
2022-12-08T00:23:02.743Z,20
2022-12-08T00:24:05.320Z,18
2022-12-08T00:25:07.928Z,20
2022-12-08T00:26:10.541Z,21
2022-12-08T00:27:13.169Z,20
2022-12-08T00:28:15.740Z,20
2022-12-08T00:29:18.416Z,20
2022-12-08T00:30:21.321Z,18
2022-12-08T00:31:24.011Z,19
2022-12-08T00:32:26.795Z,19
2022-12-08T00:33:29.378Z,18
2022-12-08T00:34:31.977Z,19
2022-12-08T00:35:37.588Z,20
2022-12-08T00:36:45.799Z,20
2022-12-08T00:37:48.350Z,19
2022-12-08T00:38:50.940Z,20
2022-12-08T00:39:53.727Z,19
2022-12-08T00:40:56.306Z,19
2022-12-08T00:41:58.989Z,22
2022-12-08T00:43:01.644Z,20
2022-12-08T00:44:04.348Z,20
2022-12-08T00:45:07.056Z,18
2022-12-08T00:46:09.807Z,19
2022-12-08T00:47:12.698Z,18
2022-12-08T00:48:15.348Z,19
2022-12-08T00:49:17.953Z,14
2022-12-08T00:50:20.584Z,18
2022-12-08T00:51:23.227Z,14
2022-12-08T00:52:25.815Z,14
2022-12-08T00:53:28.390Z,14
2022-12-08T00:54:30.941Z,14
2022-12-08T00:55:33.553Z,13
2022-12-08T00:56:36.168Z,13
2022-12-08T00:57:38.759Z,13
2022-12-08T00:58:41.322Z,13
2022-12-08T00:59:43.987Z,13
2022-12-08T01:00:46.760Z,13
2022-12-08T01:01:49.616Z,13
2022-12-08T01:02:52.320Z,13
2022-12-08T01:03:55.192Z,13
2022-12-08T01:04:57.825Z,13
2022-12-08T01:06:00.410Z,14
2022-12-08T01:07:03.034Z,13
2022-12-08T01:08:05.694Z,13
2022-12-08T01:09:08.652Z,13
2022-12-08T01:10:11.264Z,13
2022-12-08T01:11:13.828Z,14
2022-12-08T01:12:16.439Z,14
2022-12-08T01:13:19.061Z,13
2022-12-08T01:14:21.670Z,13
2022-12-08T01:15:27.742Z,15
2022-12-08T01:16:30.203Z,15
2022-12-08T01:17:33.032Z,13
2022-12-08T01:18:35.609Z,11
2022-12-08T01:19:38.184Z,13
2022-12-08T01:20:40.809Z,12
2022-12-08T01:21:43.453Z,11
2022-12-08T01:22:46.051Z,13
2022-12-08T01:23:48.673Z,13
2022-12-08T01:24:51.308Z,11
2022-12-08T01:25:53.887Z,11
2022-12-08T01:26:56.483Z,13
2022-12-08T01:27:59.031Z,11
2022-12-08T01:29:01.650Z,11
2022-12-08T01:30:04.611Z,13
2022-12-08T01:31:08.186Z,13
2022-12-08T01:32:11.080Z,11
2022-12-08T01:33:13.697Z,11
2022-12-08T01:34:16.334Z,11
2022-12-08T01:35:18.942Z,12
2022-12-08T01:36:21.579Z,12
2022-12-08T01:37:24.169Z,13
2022-12-08T01:38:26.801Z,11
2022-12-08T01:39:29.450Z,11
2022-12-08T01:40:32.080Z,10
2022-12-08T01:41:34.745Z,10
2022-12-08T01:42:37.311Z,11
2022-12-08T01:43:39.867Z,10
2022-12-08T01:44:42.421Z,10
2022-12-08T01:45:45.059Z,13
2022-12-08T01:46:51.375Z,11
2022-12-08T01:47:53.853Z,10
2022-12-08T01:48:56.708Z,11
2022-12-08T01:49:59.270Z,11
2022-12-08T01:51:01.865Z,10
2022-12-08T01:52:04.472Z,10
2022-12-08T01:53:07.097Z,11
2022-12-08T01:54:09.773Z,11
2022-12-08T01:55:12.395Z,11
2022-12-08T01:56:14.987Z,11
2022-12-08T01:57:17.602Z,11
2022-12-08T01:58:21.166Z,10
2022-12-08T01:59:23.778Z,10
2022-12-08T02:00:26.378Z,10
2022-12-08T02:01:29.019Z,11
2022-12-08T02:02:31.848Z,11
2022-12-08T02:03:34.778Z,10
2022-12-08T02:04:37.399Z,10
2022-12-08T02:05:40.024Z,11
2022-12-08T02:06:42.635Z,10
2022-12-08T02:07:45.293Z,10
2022-12-08T02:08:48.063Z,10
2022-12-08T02:09:50.763Z,13
2022-12-08T02:10:53.424Z,13
2022-12-08T02:11:56.006Z,11
2022-12-08T02:12:58.597Z,10
2022-12-08T02:14:01.180Z,10
2022-12-08T02:15:05.429Z,10
2022-12-08T02:16:09.303Z,9
2022-12-08T02:17:12.376Z,11
2022-12-08T02:18:15.002Z,10
2022-12-08T02:19:33.012Z,11
2022-12-08T02:20:34.042Z,10
2022-12-08T02:21:36.609Z,11
2022-12-08T02:22:39.247Z,10
2022-12-08T02:23:41.932Z,10
2022-12-08T02:24:44.533Z,10
2022-12-08T02:25:47.188Z,10
2022-12-08T02:26:49.776Z,11
2022-12-08T02:27:52.426Z,11
2022-12-08T02:28:55.128Z,11
2022-12-08T02:29:57.717Z,10
2022-12-08T02:31:00.384Z,11
2022-12-08T02:32:03.174Z,10
2022-12-08T02:33:05.756Z,11
2022-12-08T02:34:08.406Z,11
2022-12-08T02:35:11.056Z,10
2022-12-08T02:36:13.767Z,11
2022-12-08T02:37:16.349Z,11
2022-12-08T02:38:18.986Z,10
2022-12-08T02:39:21.632Z,10
2022-12-08T02:40:24.281Z,10
2022-12-08T02:41:26.945Z,11
2022-12-08T02:42:29.527Z,10
2022-12-08T02:43:32.143Z,11
2022-12-08T02:44:34.755Z,10
2022-12-08T02:45:37.424Z,10
2022-12-08T02:46:40.177Z,10
2022-12-08T02:47:43.065Z,11
2022-12-08T02:48:45.692Z,11
2022-12-08T02:49:48.301Z,11
2022-12-08T02:50:50.929Z,11
2022-12-08T02:51:53.540Z,11
2022-12-08T02:52:56.164Z,11
2022-12-08T02:53:58.782Z,10
2022-12-08T02:55:01.393Z,11
2022-12-08T02:56:03.970Z,11
2022-12-08T02:57:06.567Z,11
2022-12-08T02:58:09.144Z,11
2022-12-08T02:59:12.334Z,11
2022-12-08T03:00:14.920Z,13
2022-12-08T03:01:17.677Z,13
2022-12-08T03:02:20.578Z,13
2022-12-08T03:03:23.692Z,14
2022-12-08T03:04:26.319Z,14
2022-12-08T03:05:28.897Z,14
2022-12-08T03:06:31.554Z,13
2022-12-08T03:07:34.213Z,13
2022-12-08T03:08:36.811Z,13
2022-12-08T03:09:39.474Z,11
2022-12-08T03:10:42.100Z,13
2022-12-08T03:11:44.651Z,11
2022-12-08T03:12:47.251Z,11
2022-12-08T03:13:49.857Z,13
2022-12-08T03:14:52.507Z,11
2022-12-08T03:15:55.170Z,11
2022-12-08T03:16:57.965Z,11
2022-12-08T03:18:00.611Z,11
2022-12-08T03:19:03.266Z,10
2022-12-08T03:20:06.151Z,11
2022-12-08T03:21:10.300Z,10
2022-12-08T03:22:12.836Z,11
2022-12-08T03:23:15.496Z,11
2022-12-08T03:24:18.104Z,11
2022-12-08T03:25:20.721Z,11
2022-12-08T03:26:23.372Z,11
2022-12-08T03:27:26.006Z,11
2022-12-08T03:28:28.636Z,11
2022-12-08T03:29:31.259Z,11
2022-12-08T03:30:33.890Z,10
2022-12-08T03:31:36.586Z,11
2022-12-08T03:32:39.457Z,11
2022-12-08T03:33:42.013Z,18
2022-12-08T03:34:44.657Z,23
2022-12-08T03:35:47.305Z,23
2022-12-08T03:36:49.920Z,21
2022-12-08T03:37:52.581Z,19
2022-12-08T03:38:55.218Z,15
2022-12-08T03:39:57.825Z,13
2022-12-08T03:41:00.473Z,13
2022-12-08T03:42:03.069Z,11
2022-12-08T03:43:05.714Z,11
2022-12-08T03:44:08.337Z,11
2022-12-08T03:45:10.962Z,10
2022-12-08T03:46:13.584Z,8
2022-12-08T03:47:16.367Z,10
2022-12-08T03:48:18.990Z,11
2022-12-08T03:49:21.642Z,11
2022-12-08T03:50:24.361Z,11
2022-12-08T03:51:27.002Z,11
2022-12-08T03:52:29.644Z,11
2022-12-08T03:53:32.312Z,11
2022-12-08T03:54:34.950Z,11
2022-12-08T03:55:37.607Z,11
2022-12-08T03:56:40.189Z,11
2022-12-08T03:57:42.775Z,10
2022-12-08T03:58:45.394Z,10
2022-12-08T03:59:48.214Z,11
2022-12-08T04:00:50.830Z,11
2022-12-08T04:01:53.507Z,11
2022-12-08T04:02:56.455Z,22
2022-12-08T04:03:59.360Z,27
2022-12-08T04:05:01.937Z,28
2022-12-08T04:06:04.564Z,26
2022-12-08T04:07:07.147Z,23
2022-12-08T04:08:09.851Z,21
2022-12-08T04:09:12.884Z,14
2022-12-08T04:10:15.507Z,11
2022-12-08T04:11:18.131Z,11
2022-12-08T04:12:20.753Z,11
2022-12-08T04:13:23.366Z,11
2022-12-08T04:14:25.892Z,10
2022-12-08T04:15:28.579Z,10
2022-12-08T04:16:31.397Z,11
2022-12-08T04:17:34.180Z,13
2022-12-08T04:18:36.803Z,11
2022-12-08T04:19:39.435Z,11
2022-12-08T04:20:42.038Z,11
2022-12-08T04:21:44.723Z,13
2022-12-08T04:22:47.315Z,11
2022-12-08T04:23:50.421Z,11
2022-12-08T04:25:00.795Z,11
2022-12-08T04:26:03.451Z,11
2022-12-08T04:27:06.140Z,11
2022-12-08T04:28:08.724Z,13
2022-12-08T04:29:11.298Z,11
2022-12-08T04:30:13.874Z,13
2022-12-08T04:31:16.579Z,11
2022-12-08T04:32:19.474Z,13
2022-12-08T04:33:22.127Z,13
2022-12-08T04:34:24.736Z,11
2022-12-08T04:35:27.333Z,13
2022-12-08T04:36:29.922Z,13
2022-12-08T04:37:32.608Z,13
2022-12-08T04:38:35.184Z,13
2022-12-08T04:39:41.370Z,13
2022-12-08T04:40:43.843Z,13
2022-12-08T04:41:46.433Z,11
2022-12-08T04:42:49.057Z,11
2022-12-08T04:43:51.681Z,11
2022-12-08T04:44:54.359Z,11
2022-12-08T04:45:56.991Z,11
2022-12-08T04:46:59.666Z,11
2022-12-08T04:48:04.047Z,13
2022-12-08T04:49:06.430Z,11
2022-12-08T04:50:09.077Z,13
2022-12-08T04:51:11.679Z,11
2022-12-08T04:52:14.292Z,11
2022-12-08T04:53:16.900Z,13
2022-12-08T04:54:19.510Z,11
2022-12-08T04:55:22.122Z,11
2022-12-08T04:56:24.754Z,11
2022-12-08T04:57:27.422Z,13
2022-12-08T04:58:30.029Z,13
2022-12-08T04:59:32.857Z,11
2022-12-08T05:00:35.476Z,11
2022-12-08T05:01:38.256Z,13
2022-12-08T05:02:41.597Z,13
2022-12-08T05:03:44.399Z,13
2022-12-08T05:04:47.015Z,13
2022-12-08T05:05:49.629Z,13
2022-12-08T05:06:52.202Z,11
2022-12-08T05:07:54.832Z,13
2022-12-08T05:08:57.646Z,13
2022-12-08T05:10:00.246Z,15
2022-12-08T05:11:03.559Z,13
2022-12-08T05:12:06.220Z,14
2022-12-08T05:13:08.843Z,15
2022-12-08T05:14:16.931Z,13
2022-12-08T05:15:19.700Z,13
2022-12-08T05:16:22.309Z,13
2022-12-08T05:17:25.165Z,13
2022-12-08T05:18:27.780Z,11
2022-12-08T05:19:35.908Z,12
2022-12-08T05:20:40.589Z,13
2022-12-08T05:21:47.745Z,11
2022-12-08T05:22:49.810Z,11
2022-12-08T05:23:52.469Z,11
2022-12-08T05:24:55.066Z,13
2022-12-08T05:25:57.612Z,11
2022-12-08T05:27:00.492Z,13
2022-12-08T05:28:32.556Z,11
2022-12-08T05:29:24.946Z,11
2022-12-08T05:30:27.524Z,11
2022-12-08T05:31:30.352Z,11
2022-12-08T05:32:33.134Z,-1
2022-12-08T05:33:35.748Z,11
2022-12-08T05:34:38.356Z,11
2022-12-08T05:35:41.571Z,11
2022-12-08T05:36:44.199Z,11
2022-12-08T05:37:46.849Z,11
2022-12-08T05:38:49.449Z,12
2022-12-08T05:39:52.079Z,10
2022-12-08T05:41:00.219Z,14
2022-12-08T05:42:04.842Z,14
2022-12-08T05:43:07.464Z,19
2022-12-08T05:44:10.041Z,19
2022-12-08T05:45:12.638Z,20
2022-12-08T05:46:15.343Z,17
2022-12-08T05:47:18.177Z,18
2022-12-08T05:48:20.781Z,19
2022-12-08T05:49:23.409Z,18
2022-12-08T05:51:47.028Z,19
2022-12-08T05:52:49.622Z,19
2022-12-08T05:53:52.238Z,22
2022-12-08T05:54:54.881Z,21
2022-12-08T05:55:57.986Z,19
2022-12-08T05:57:00.557Z,21
2022-12-08T05:58:07.775Z,21
2022-12-08T05:59:10.472Z,21
2022-12-08T06:00:13.035Z,22
2022-12-08T06:01:15.699Z,21
2022-12-08T06:02:21.996Z,22
2022-12-08T06:03:28.440Z,22
2022-12-08T06:04:31.248Z,22
2022-12-08T06:05:33.868Z,23
2022-12-08T06:06:36.538Z,28
2022-12-08T06:07:39.203Z,34
2022-12-08T06:08:42.292Z,41
2022-12-08T06:09:44.906Z,50
2022-12-08T06:10:47.552Z,54
2022-12-08T06:11:50.147Z,54
2022-12-08T06:12:52.745Z,51
2022-12-08T06:13:55.327Z,44
2022-12-08T06:14:58.404Z,41
2022-12-08T06:16:01.627Z,41
2022-12-08T06:17:05.823Z,36
2022-12-08T06:18:08.998Z,34
2022-12-08T06:19:11.615Z,29
2022-12-08T06:20:14.240Z,28
2022-12-08T06:21:22.326Z,29
2022-12-08T06:22:24.589Z,30
2022-12-08T06:23:27.167Z,24
2022-12-08T06:24:29.792Z,23
2022-12-08T06:25:32.971Z,23
2022-12-08T06:26:35.540Z,22
2022-12-08T06:27:38.155Z,21
2022-12-08T06:28:41.387Z,21
2022-12-08T06:29:44.602Z,22
2022-12-08T06:30:47.780Z,22
2022-12-08T06:31:50.436Z,22
2022-12-08T06:32:53.264Z,22
2022-12-08T06:33:55.841Z,22
2022-12-08T06:34:58.452Z,22
2022-12-08T06:36:01.115Z,21
2022-12-08T06:37:03.732Z,22
2022-12-08T06:38:06.361Z,22
2022-12-08T06:39:09.016Z,23
2022-12-08T06:40:15.174Z,24
2022-12-08T06:41:27.588Z,23
2022-12-08T06:42:29.761Z,23
2022-12-08T06:43:32.329Z,24
2022-12-08T06:44:34.919Z,23
2022-12-08T06:45:38.156Z,23
2022-12-08T06:46:40.995Z,23
2022-12-08T06:47:43.821Z,24
2022-12-08T06:48:46.404Z,26
2022-12-08T06:49:49.025Z,26
2022-12-08T06:50:52.329Z,28
2022-12-08T06:51:54.751Z,27
2022-12-08T06:53:04.715Z,26
2022-12-08T06:54:08.484Z,24
2022-12-08T06:55:16.881Z,23
2022-12-08T06:56:32.757Z,23
2022-12-08T06:57:38.756Z,24
2022-12-08T06:58:48.909Z,23
2022-12-08T06:59:55.307Z,23
2022-12-08T07:01:02.451Z,23
2022-12-08T07:02:05.113Z,23
2022-12-08T07:03:07.949Z,22
2022-12-08T07:04:10.598Z,22
2022-12-08T07:05:13.177Z,21
2022-12-08T07:06:15.804Z,22
2022-12-08T07:07:18.954Z,22
2022-12-08T07:08:26.910Z,22
2022-12-08T07:09:30.895Z,24
2022-12-08T07:10:33.289Z,27
2022-12-08T07:11:41.448Z,27
2022-12-08T07:12:43.611Z,27
2022-12-08T07:13:52.010Z,26
2022-12-08T07:14:54.188Z,24
2022-12-08T07:15:56.818Z,23
2022-12-08T07:16:59.458Z,23
2022-12-08T07:18:07.935Z,23
2022-12-08T07:19:10.147Z,22
2022-12-08T07:20:13.360Z,23
2022-12-08T07:21:15.936Z,23
2022-12-08T07:22:18.575Z,23
2022-12-08T07:23:21.477Z,23
2022-12-08T07:24:25.616Z,22
2022-12-08T07:25:27.957Z,22
2022-12-08T07:26:30.565Z,22
2022-12-08T07:27:34.733Z,22
2022-12-08T07:28:37.845Z,23
2022-12-08T07:29:40.474Z,28
2022-12-08T07:30:43.081Z,31
2022-12-08T07:31:46.040Z,35
2022-12-08T07:32:48.634Z,36
2022-12-08T07:33:51.758Z,31
2022-12-08T07:34:54.374Z,29
2022-12-08T07:35:57.014Z,26
2022-12-08T07:36:59.857Z,24
2022-12-08T07:38:02.704Z,24
2022-12-08T07:39:05.325Z,24
2022-12-08T07:40:08.168Z,24
2022-12-08T07:41:17.620Z,24
2022-12-08T07:42:19.763Z,23
2022-12-08T07:43:22.341Z,23
2022-12-08T07:44:24.935Z,23
2022-12-08T07:45:31.366Z,24
2022-12-08T07:46:34.327Z,24
2022-12-08T07:47:37.295Z,25
2022-12-08T07:48:39.952Z,25
2022-12-08T07:49:42.817Z,25
2022-12-08T07:50:45.456Z,25
2022-12-08T07:51:48.083Z,24
2022-12-08T07:52:50.760Z,24
2022-12-08T07:53:54.751Z,23
2022-12-08T07:54:58.018Z,23
2022-12-08T07:56:00.655Z,23
2022-12-08T07:57:03.834Z,23
2022-12-08T07:58:06.435Z,23
2022-12-08T07:59:09.049Z,23
2022-12-08T08:00:11.630Z,23
2022-12-08T08:01:14.954Z,23
2022-12-08T08:02:24.548Z,23
2022-12-08T08:03:28.888Z,24
2022-12-08T08:04:31.533Z,25
2022-12-08T08:05:40.990Z,24
2022-12-08T08:06:43.184Z,25
2022-12-08T08:07:45.860Z,25
2022-12-08T08:08:48.946Z,26
2022-12-08T08:09:51.522Z,27
2022-12-08T08:10:54.153Z,26
2022-12-08T08:12:22.613Z,26
2022-12-08T08:13:18.799Z,24
2022-12-08T08:14:21.495Z,24
2022-12-08T08:15:24.034Z,24
2022-12-08T08:16:26.729Z,25
2022-12-08T08:17:32.105Z,25
2022-12-08T08:18:35.339Z,27
2022-12-08T08:19:38.420Z,27
2022-12-08T08:20:46.596Z,30
2022-12-08T08:21:48.831Z,33
2022-12-08T08:22:53.960Z,34
2022-12-08T08:23:56.368Z,35
2022-12-08T08:24:59.183Z,35
2022-12-08T08:26:02.362Z,34
2022-12-08T08:27:04.939Z,34
2022-12-08T08:28:10.059Z,34
2022-12-08T08:29:12.356Z,34
2022-12-08T08:30:19.855Z,34
2022-12-08T08:31:23.680Z,34
2022-12-08T08:32:26.478Z,34
2022-12-08T08:33:39.093Z,34
2022-12-08T08:34:47.851Z,31
2022-12-08T08:35:50.117Z,30
2022-12-08T08:36:52.816Z,29
2022-12-08T08:37:55.638Z,27
2022-12-08T08:38:58.799Z,25
2022-12-08T08:40:01.698Z,24
2022-12-08T08:41:05.654Z,23
2022-12-08T08:42:08.275Z,23
2022-12-08T08:43:10.958Z,23
2022-12-08T08:44:13.812Z,23
2022-12-08T08:45:16.396Z,22
2022-12-08T08:46:19.021Z,22
2022-12-08T08:47:22.381Z,22
2022-12-08T08:48:30.746Z,22
2022-12-08T08:49:33.007Z,22
2022-12-08T08:50:37.639Z,23
2022-12-08T08:51:40.395Z,22
2022-12-08T08:52:43.016Z,22
2022-12-08T08:53:45.628Z,22
2022-12-08T08:54:53.741Z,21
2022-12-08T08:55:55.968Z,21
2022-12-08T08:56:58.630Z,21
2022-12-08T08:58:01.234Z,22
2022-12-08T08:59:03.858Z,22
2022-12-08T09:00:06.776Z,22
2022-12-08T09:01:10.866Z,22
2022-12-08T09:02:13.788Z,23
2022-12-08T09:03:16.715Z,22
2022-12-08T09:04:19.391Z,22
2022-12-08T09:05:22.111Z,20
2022-12-08T09:06:24.837Z,20
2022-12-08T09:07:27.927Z,20
2022-12-08T09:08:30.590Z,21
2022-12-08T09:09:33.667Z,21
2022-12-08T09:10:36.280Z,20
2022-12-08T09:11:38.889Z,21
2022-12-08T09:12:41.549Z,20
2022-12-08T09:13:44.162Z,18
2022-12-08T09:14:47.292Z,20
2022-12-08T09:15:49.866Z,22
2022-12-08T09:16:52.754Z,22
2022-12-08T09:17:55.880Z,20
2022-12-08T09:18:58.448Z,20
2022-12-08T09:20:01.150Z,21
2022-12-08T09:21:10.606Z,20
2022-12-08T09:22:18.282Z,22
2022-12-08T09:23:20.626Z,22
2022-12-08T09:24:23.238Z,21
2022-12-08T09:25:25.913Z,22
2022-12-08T09:26:35.012Z,21
2022-12-08T09:27:37.246Z,22
2022-12-08T09:28:39.910Z,23
2022-12-08T09:29:42.555Z,25
2022-12-08T09:30:45.173Z,23
2022-12-08T09:31:47.882Z,23
2022-12-08T09:32:50.766Z,23
2022-12-08T09:33:53.429Z,23
2022-12-08T09:34:56.121Z,22
2022-12-08T09:35:58.653Z,23
2022-12-08T09:37:11.267Z,22
2022-12-08T09:38:13.446Z,21
2022-12-08T09:39:16.108Z,22
2022-12-08T09:40:19.302Z,22
2022-12-08T09:41:21.950Z,20
2022-12-08T09:42:24.560Z,21
2022-12-08T09:43:27.209Z,22
2022-12-08T09:44:29.895Z,22
2022-12-08T09:45:32.509Z,22
2022-12-08T09:46:35.187Z,23
2022-12-08T09:47:38.179Z,22
2022-12-08T09:48:40.778Z,22
2022-12-08T09:49:43.393Z,21
2022-12-08T09:50:45.972Z,21
2022-12-08T09:51:48.568Z,20
2022-12-08T09:52:51.217Z,21
2022-12-08T09:53:54.282Z,20
2022-12-08T09:54:57.186Z,20
2022-12-08T09:56:05.350Z,22
2022-12-08T09:57:07.611Z,20
2022-12-08T09:58:13.081Z,20
2022-12-08T09:59:15.595Z,20
2022-12-08T10:00:18.216Z,20
2022-12-08T10:01:20.900Z,20
2022-12-08T10:02:23.796Z,20
2022-12-08T10:03:26.975Z,21
2022-12-08T10:04:29.679Z,21
2022-12-08T10:05:32.553Z,22
2022-12-08T10:06:35.569Z,21
2022-12-08T10:07:38.215Z,21
2022-12-08T10:08:41.117Z,21
2022-12-08T10:09:54.320Z,20
2022-12-08T10:10:56.602Z,19
2022-12-08T10:11:59.198Z,21
2022-12-08T10:13:01.858Z,20
2022-12-08T10:14:04.476Z,20
2022-12-08T10:15:07.709Z,20
2022-12-08T10:16:12.891Z,20
2022-12-08T10:17:31.618Z,18
2022-12-08T10:18:34.206Z,18
2022-12-08T10:19:36.814Z,18
2022-12-08T10:20:39.430Z,18
2022-12-08T10:21:42.058Z,20
2022-12-08T10:22:45.217Z,18
2022-12-08T10:23:47.813Z,18
2022-12-08T10:24:50.501Z,18
2022-12-08T10:25:53.104Z,20
2022-12-08T10:26:56.381Z,20
2022-12-08T10:27:58.958Z,20
2022-12-08T10:29:01.630Z,20
2022-12-08T10:30:04.573Z,19
2022-12-08T10:31:14.032Z,18
2022-12-08T10:32:22.971Z,17
2022-12-08T10:33:25.163Z,17
2022-12-08T10:34:27.738Z,14
2022-12-08T10:35:30.392Z,18
2022-12-08T10:36:32.979Z,18
2022-12-08T10:37:35.616Z,18
2022-12-08T10:38:38.203Z,18
2022-12-08T10:39:40.832Z,18
2022-12-08T10:40:48.982Z,18
2022-12-08T10:41:51.251Z,19
2022-12-08T10:42:53.949Z,21
2022-12-08T10:43:56.560Z,21
2022-12-08T10:44:59.168Z,22
2022-12-08T10:46:01.791Z,20
2022-12-08T10:47:04.497Z,15
2022-12-08T10:48:07.392Z,15
2022-12-08T10:49:10.007Z,14
2022-12-08T10:50:12.644Z,15
2022-12-08T10:51:16.232Z,15
2022-12-08T10:52:18.874Z,15
2022-12-08T10:53:21.494Z,18
2022-12-08T10:54:27.617Z,13
2022-12-08T10:55:30.057Z,15
2022-12-08T10:56:32.678Z,18
2022-12-08T10:57:35.995Z,14
2022-12-08T10:58:38.737Z,14
2022-12-08T10:59:41.381Z,15
2022-12-08T11:00:51.011Z,17
2022-12-08T11:01:54.110Z,18
2022-12-08T11:02:57.789Z,17
2022-12-08T11:04:00.667Z,20
2022-12-08T11:05:03.298Z,23
2022-12-08T11:06:10.816Z,23
2022-12-08T11:07:13.453Z,20
2022-12-08T11:08:16.118Z,18
2022-12-08T11:09:19.584Z,15
2022-12-08T11:10:22.201Z,14
2022-12-08T11:11:29.328Z,14
2022-12-08T11:12:31.967Z,13
2022-12-08T11:13:34.569Z,14
2022-12-08T11:14:37.240Z,14
2022-12-08T11:15:39.880Z,13
2022-12-08T11:16:42.619Z,14
2022-12-08T11:17:45.606Z,14
2022-12-08T11:18:48.834Z,11
2022-12-08T11:19:51.411Z,11
2022-12-08T11:20:54.027Z,13
2022-12-08T11:21:56.658Z,13
2022-12-08T11:22:59.336Z,11
2022-12-08T11:24:01.986Z,11
2022-12-08T11:25:04.622Z,11
2022-12-08T11:26:07.224Z,11
2022-12-08T11:27:09.868Z,11
2022-12-08T11:28:12.508Z,11
2022-12-08T11:29:15.139Z,11
2022-12-08T11:30:18.218Z,13
2022-12-08T11:31:22.204Z,11
2022-12-08T11:32:25.182Z,11
2022-12-08T11:33:27.832Z,13
2022-12-08T11:34:30.479Z,11
2022-12-08T11:35:33.127Z,11
2022-12-08T11:36:35.743Z,13
2022-12-08T11:37:38.953Z,11
2022-12-08T11:38:41.640Z,13
2022-12-08T11:39:44.253Z,13
2022-12-08T11:40:50.529Z,11
2022-12-08T11:41:52.925Z,13
2022-12-08T11:42:55.535Z,13
2022-12-08T11:43:58.181Z,14
2022-12-08T11:45:00.841Z,13
2022-12-08T11:46:03.672Z,20
2022-12-08T11:47:06.589Z,20
2022-12-08T11:48:09.233Z,20
2022-12-08T11:49:11.897Z,18
2022-12-08T11:50:18.058Z,14
2022-12-08T11:51:22.291Z,18
2022-12-08T11:52:24.902Z,20
2022-12-08T11:53:28.345Z,20
2022-12-08T11:54:31.204Z,20
2022-12-08T11:55:35.420Z,20
2022-12-08T11:56:51.936Z,18
2022-12-08T11:57:54.584Z,20
2022-12-08T11:58:58.678Z,19
2022-12-08T12:00:02.065Z,15
2022-12-08T12:01:06.260Z,18
2022-12-08T12:02:10.452Z,18
2022-12-08T12:03:13.850Z,18
2022-12-08T12:04:16.679Z,18
2022-12-08T12:05:27.985Z,15
2022-12-08T12:06:56.523Z,15
2022-12-08T12:07:57.849Z,18
2022-12-08T12:09:00.749Z,18
2022-12-08T12:10:03.954Z,18
2022-12-08T12:11:07.967Z,14
2022-12-08T12:12:10.753Z,15
2022-12-08T12:13:13.426Z,17
2022-12-08T12:14:16.019Z,18
2022-12-08T12:15:18.665Z,18
2022-12-08T12:16:21.346Z,18
2022-12-08T12:17:24.189Z,18
2022-12-08T12:18:27.075Z,18
2022-12-08T12:19:29.890Z,18
2022-12-08T12:20:32.514Z,20
2022-12-08T12:21:35.702Z,20
2022-12-08T12:22:38.303Z,20
2022-12-08T12:23:40.927Z,22
2022-12-08T12:24:43.508Z,22
2022-12-08T12:25:46.127Z,20
2022-12-08T12:26:48.859Z,20
2022-12-08T12:27:57.027Z,20
2022-12-08T12:28:59.950Z,20
2022-12-08T12:30:12.776Z,20
2022-12-08T12:31:15.637Z,20
2022-12-08T12:32:18.515Z,20
2022-12-08T12:33:31.757Z,19
2022-12-08T12:34:33.942Z,20
2022-12-08T12:35:44.046Z,18
2022-12-08T12:36:46.192Z,18
2022-12-08T12:37:48.786Z,20
2022-12-08T12:38:51.360Z,15
2022-12-08T12:39:53.946Z,18
2022-12-08T12:40:56.518Z,19
2022-12-08T12:41:59.522Z,18
2022-12-08T12:43:02.944Z,18
2022-12-08T12:44:05.431Z,18
2022-12-08T12:45:07.967Z,20
2022-12-08T12:46:10.622Z,20
2022-12-08T12:47:14.151Z,20
2022-12-08T12:48:17.648Z,22
2022-12-08T12:49:30.865Z,20
2022-12-08T12:50:33.178Z,18
2022-12-08T12:51:36.589Z,19
2022-12-08T12:52:41.642Z,18
2022-12-08T12:53:49.628Z,19
2022-12-08T12:54:55.399Z,19
2022-12-08T12:55:57.726Z,20
2022-12-08T12:57:00.329Z,20
2022-12-08T12:58:03.494Z,20
2022-12-08T12:59:06.033Z,20
2022-12-08T13:00:08.937Z,18
2022-12-08T13:01:13.331Z,19
2022-12-08T13:02:20.012Z,20
2022-12-08T13:03:22.897Z,14
2022-12-08T13:04:25.700Z,18
2022-12-08T13:05:38.534Z,14
2022-12-08T13:06:44.624Z,14
2022-12-08T13:07:47.615Z,15
2022-12-08T13:08:50.423Z,18
2022-12-08T13:09:53.053Z,17
2022-12-08T13:10:55.661Z,15
2022-12-08T13:12:09.750Z,15
2022-12-08T13:13:11.893Z,14
2022-12-08T13:14:14.467Z,18
2022-12-08T13:15:17.643Z,14
2022-12-08T13:16:21.028Z,15
2022-12-08T13:17:24.028Z,18
2022-12-08T13:18:26.670Z,15
2022-12-08T13:19:32.873Z,14
2022-12-08T13:20:35.273Z,18
2022-12-08T13:21:37.894Z,19
2022-12-08T13:22:55.088Z,15
2022-12-08T13:23:58.025Z,18
2022-12-08T13:25:00.627Z,18
2022-12-08T13:26:03.273Z,14
2022-12-08T13:27:05.866Z,14
2022-12-08T13:28:08.517Z,18
2022-12-08T13:29:11.129Z,14
2022-12-08T13:30:13.803Z,14
2022-12-08T13:31:16.449Z,14
2022-12-08T13:32:19.353Z,14
2022-12-08T13:33:21.978Z,14
2022-12-08T13:34:28.153Z,15
2022-12-08T13:35:30.849Z,15
2022-12-08T13:36:33.443Z,-1
2022-12-08T13:37:41.448Z,17
2022-12-08T13:38:56.868Z,15
2022-12-08T13:39:59.439Z,18
2022-12-08T13:41:02.065Z,15
2022-12-08T13:42:04.648Z,17
2022-12-08T13:43:07.269Z,14
2022-12-08T13:44:57.085Z,14
2022-12-08T13:46:12.450Z,13
2022-12-08T13:47:24.989Z,14
2022-12-08T13:48:42.528Z,15
2022-12-08T13:53:41.763Z,14
2022-12-08T13:56:37.054Z,14
2022-12-08T13:57:49.682Z,18
2022-12-08T13:58:52.458Z,14
2022-12-08T13:59:55.125Z,13
2022-12-08T14:00:57.693Z,14
2022-12-08T14:02:00.291Z,18
2022-12-08T14:03:03.003Z,18
2022-12-08T14:04:33.957Z,18
2022-12-08T14:05:48.004Z,20
2022-12-08T14:06:49.610Z,21
2022-12-08T14:07:52.227Z,23
2022-12-08T14:09:01.441Z,23
2022-12-08T14:10:13.098Z,22
2022-12-08T14:11:15.675Z,20
2022-12-08T14:12:18.279Z,20
2022-12-08T14:13:21.167Z,22
2022-12-08T14:14:46.264Z,23
2022-12-08T14:15:45.682Z,23
2022-12-08T14:16:48.448Z,22
2022-12-08T14:17:51.069Z,20
2022-12-08T14:18:53.737Z,20
2022-12-08T14:19:56.351Z,14
2022-12-08T14:21:20.224Z,14
2022-12-08T14:22:20.781Z,14
2022-12-08T14:23:23.322Z,13
2022-12-08T14:24:25.961Z,11
2022-12-08T14:25:28.628Z,13
2022-12-08T14:26:31.283Z,15
2022-12-08T14:27:33.956Z,14
2022-12-08T14:28:40.121Z,14
2022-12-08T14:29:47.711Z,14
2022-12-08T14:30:50.807Z,13
2022-12-08T14:31:53.560Z,14
2022-12-08T14:32:56.196Z,14
2022-12-08T14:33:58.811Z,14
2022-12-08T14:35:01.740Z,13
2022-12-08T14:36:05.388Z,11
2022-12-08T14:37:07.990Z,14
2022-12-08T14:38:10.695Z,13
2022-12-08T14:39:13.574Z,13
2022-12-08T14:40:19.738Z,14
2022-12-08T14:41:26.204Z,18
2022-12-08T14:42:28.839Z,21
2022-12-08T14:43:32.594Z,23
2022-12-08T14:44:35.160Z,23
2022-12-08T14:45:37.744Z,20
2022-12-08T14:46:40.400Z,20
2022-12-08T14:47:43.319Z,20
2022-12-08T14:48:46.024Z,18
2022-12-08T14:49:48.667Z,19
2022-12-08T14:50:51.293Z,18
2022-12-08T14:51:53.926Z,18
2022-12-08T14:52:56.553Z,18
2022-12-08T14:53:59.362Z,15
2022-12-08T14:55:02.519Z,18
2022-12-08T14:56:05.143Z,18
2022-12-08T14:57:07.837Z,14
2022-12-08T14:58:13.988Z,14
2022-12-08T14:59:18.936Z,13
2022-12-08T15:00:21.577Z,14
2022-12-08T15:01:24.887Z,18
2022-12-08T15:02:31.083Z,19
2022-12-08T15:03:33.501Z,19
2022-12-08T15:04:36.110Z,20
2022-12-08T15:05:38.932Z,20
2022-12-08T15:06:42.061Z,20
2022-12-08T15:07:44.733Z,20
2022-12-08T15:08:51.099Z,22
2022-12-08T15:09:53.534Z,21
2022-12-08T15:10:56.117Z,20
2022-12-08T15:11:58.715Z,21
2022-12-08T15:13:01.428Z,23
2022-12-08T15:14:04.054Z,23
2022-12-08T15:15:06.693Z,23